sensor_id;sensor_type;location;lat;lon;timestamp;P1;durP1;ratioP1;P2;durP2;ratioP2
32734;SDS011;19112;51.076;3.706;2023-05-10T00:00:52;35.97;;;14.02;;
32734;SDS011;19112;51.076;3.706;2023-05-10T00:03:18;33.72;;;13.00;;
32734;SDS011;19112;51.076;3.706;2023-05-10T00:05:44;38.83;;;13.05;;
32734;SDS011;19112;51.076;3.706;2023-05-10T00:08:10;32.83;;;12.90;;
32734;SDS011;19112;51.076;3.706;2023-05-10T00:10:35;36.75;;;13.63;;
32734;SDS011;19112;51.076;3.706;2023-05-10T00:13:02;45.10;;;14.95;;
32734;SDS011;19112;51.076;3.706;2023-05-10T00:15:28;42.17;;;15.70;;
32734;SDS011;19112;51.076;3.706;2023-05-10T00:17:56;37.70;;;13.63;;
32734;SDS011;19112;51.076;3.706;2023-05-10T00:20:22;44.47;;;14.88;;
32734;SDS011;19112;51.076;3.706;2023-05-10T00:22:48;44.38;;;15.32;;
32734;SDS011;19112;51.076;3.706;2023-05-10T00:25:14;43.17;;;15.55;;
32734;SDS011;19112;51.076;3.706;2023-05-10T00:27:40;43.92;;;14.82;;
32734;SDS011;19112;51.076;3.706;2023-05-10T00:30:06;45.90;;;16.15;;
32734;SDS011;19112;51.076;3.706;2023-05-10T00:32:32;35.08;;;15.43;;
32734;SDS011;19112;51.076;3.706;2023-05-10T00:34:58;39.50;;;16.05;;
32734;SDS011;19112;51.076;3.706;2023-05-10T00:37:24;35.28;;;14.80;;
32734;SDS011;19112;51.076;3.706;2023-05-10T00:39:50;40.25;;;15.63;;
32734;SDS011;19112;51.076;3.706;2023-05-10T00:42:16;50.67;;;17.45;;
32734;SDS011;19112;51.076;3.706;2023-05-10T00:44:41;43.30;;;17.33;;
32734;SDS011;19112;51.076;3.706;2023-05-10T00:47:07;48.65;;;18.00;;
32734;SDS011;19112;51.076;3.706;2023-05-10T00:49:34;44.88;;;18.73;;
32734;SDS011;19112;51.076;3.706;2023-05-10T00:52:01;48.88;;;19.23;;
32734;SDS011;19112;51.076;3.706;2023-05-10T00:54:28;51.05;;;20.30;;
32734;SDS011;19112;51.076;3.706;2023-05-10T00:56:54;52.88;;;21.00;;
32734;SDS011;19112;51.076;3.706;2023-05-10T00:59:22;48.80;;;19.92;;
32734;SDS011;19112;51.076;3.706;2023-05-10T01:01:48;53.38;;;19.80;;
32734;SDS011;19112;51.076;3.706;2023-05-10T01:04:14;54.67;;;21.35;;
32734;SDS011;19112;51.076;3.706;2023-05-10T01:06:41;49.50;;;21.08;;
32734;SDS011;19112;51.076;3.706;2023-05-10T01:09:08;52.38;;;22.10;;
32734;SDS011;19112;51.076;3.706;2023-05-10T01:11:35;50.80;;;21.92;;
32734;SDS011;19112;51.076;3.706;2023-05-10T01:14:02;57.50;;;23.10;;
32734;SDS011;19112;51.076;3.706;2023-05-10T01:16:29;57.45;;;22.42;;
32734;SDS011;19112;51.076;3.706;2023-05-10T01:18:58;50.45;;;21.38;;
32734;SDS011;19112;51.076;3.706;2023-05-10T01:21:33;48.13;;;21.40;;
32734;SDS011;19112;51.076;3.706;2023-05-10T01:36:01;40.80;;;18.90;;
32734;SDS011;19112;51.076;3.706;2023-05-10T01:43:46;42.75;;;20.05;;
32734;SDS011;19112;51.076;3.706;2023-05-10T01:46:17;40.53;;;19.40;;
32734;SDS011;19112;51.076;3.706;2023-05-10T01:49:00;47.72;;;21.60;;
32734;SDS011;19112;51.076;3.706;2023-05-10T01:51:29;42.95;;;20.40;;
32734;SDS011;19112;51.076;3.706;2023-05-10T01:54:04;48.05;;;21.45;;
32734;SDS011;19112;51.076;3.706;2023-05-10T01:56:32;44.92;;;20.02;;
32734;SDS011;19112;51.076;3.706;2023-05-10T01:59:00;46.58;;;20.23;;
32734;SDS011;19112;51.076;3.706;2023-05-10T02:01:36;50.45;;;22.52;;
32734;SDS011;19112;51.076;3.706;2023-05-10T02:04:03;49.80;;;21.52;;
32734;SDS011;19112;51.076;3.706;2023-05-10T02:06:34;49.63;;;21.10;;
32734;SDS011;19112;51.076;3.706;2023-05-10T02:09:03;45.50;;;21.40;;
32734;SDS011;19112;51.076;3.706;2023-05-10T02:11:30;53.45;;;22.63;;
32734;SDS011;19112;51.076;3.706;2023-05-10T02:13:57;50.33;;;21.70;;
32734;SDS011;19112;51.076;3.706;2023-05-10T02:16:26;53.03;;;23.00;;
32734;SDS011;19112;51.076;3.706;2023-05-10T02:18:53;59.10;;;23.15;;
32734;SDS011;19112;51.076;3.706;2023-05-10T02:21:22;49.53;;;21.42;;
32734;SDS011;19112;51.076;3.706;2023-05-10T02:23:49;50.78;;;22.70;;
32734;SDS011;19112;51.076;3.706;2023-05-10T02:26:17;47.03;;;20.65;;
32734;SDS011;19112;51.076;3.706;2023-05-10T02:28:45;50.63;;;21.73;;
32734;SDS011;19112;51.076;3.706;2023-05-10T02:31:11;46.83;;;21.45;;
32734;SDS011;19112;51.076;3.706;2023-05-10T02:33:38;52.05;;;21.92;;
32734;SDS011;19112;51.076;3.706;2023-05-10T02:36:06;48.40;;;21.92;;
32734;SDS011;19112;51.076;3.706;2023-05-10T02:38:34;48.30;;;21.23;;
32734;SDS011;19112;51.076;3.706;2023-05-10T02:41:01;45.28;;;19.52;;
32734;SDS011;19112;51.076;3.706;2023-05-10T02:43:30;47.15;;;20.52;;
32734;SDS011;19112;51.076;3.706;2023-05-10T02:45:58;45.90;;;20.60;;
32734;SDS011;19112;51.076;3.706;2023-05-10T02:48:24;42.17;;;20.00;;
32734;SDS011;19112;51.076;3.706;2023-05-10T02:50:50;49.08;;;21.27;;
32734;SDS011;19112;51.076;3.706;2023-05-10T02:53:21;44.97;;;19.75;;
32734;SDS011;19112;51.076;3.706;2023-05-10T02:55:51;43.10;;;18.88;;
32734;SDS011;19112;51.076;3.706;2023-05-10T02:58:22;47.08;;;20.05;;
32734;SDS011;19112;51.076;3.706;2023-05-10T03:00:47;47.35;;;20.80;;
32734;SDS011;19112;51.076;3.706;2023-05-10T03:03:13;46.65;;;19.63;;
32734;SDS011;19112;51.076;3.706;2023-05-10T03:05:39;45.30;;;20.35;;
32734;SDS011;19112;51.076;3.706;2023-05-10T03:08:05;46.38;;;19.70;;
32734;SDS011;19112;51.076;3.706;2023-05-10T03:10:31;46.15;;;20.35;;
32734;SDS011;19112;51.076;3.706;2023-05-10T03:13:07;39.47;;;18.63;;
32734;SDS011;19112;51.076;3.706;2023-05-10T03:15:59;42.70;;;20.17;;
32734;SDS011;19112;51.076;3.706;2023-05-10T03:19:06;39.30;;;18.45;;
32734;SDS011;19112;51.076;3.706;2023-05-10T03:21:59;41.10;;;18.27;;
32734;SDS011;19112;51.076;3.706;2023-05-10T03:24:29;41.00;;;18.95;;
32734;SDS011;19112;51.076;3.706;2023-05-10T03:26:58;40.83;;;18.00;;
32734;SDS011;19112;51.076;3.706;2023-05-10T03:29:29;39.72;;;17.65;;
32734;SDS011;19112;51.076;3.706;2023-05-10T03:31:57;37.35;;;17.48;;
32734;SDS011;19112;51.076;3.706;2023-05-10T03:34:24;42.60;;;18.02;;
32734;SDS011;19112;51.076;3.706;2023-05-10T03:36:51;39.42;;;18.98;;
32734;SDS011;19112;51.076;3.706;2023-05-10T03:39:17;42.17;;;19.70;;
32734;SDS011;19112;51.076;3.706;2023-05-10T03:41:43;42.20;;;20.10;;
32734;SDS011;19112;51.076;3.706;2023-05-10T03:44:09;41.55;;;18.60;;
32734;SDS011;19112;51.076;3.706;2023-05-10T03:46:34;43.88;;;19.30;;
32734;SDS011;19112;51.076;3.706;2023-05-10T03:49:00;46.58;;;20.80;;
32734;SDS011;19112;51.076;3.706;2023-05-10T03:51:26;47.13;;;20.98;;
32734;SDS011;19112;51.076;3.706;2023-05-10T03:53:53;45.03;;;20.70;;
32734;SDS011;19112;51.076;3.706;2023-05-10T03:56:20;44.38;;;21.33;;
32734;SDS011;19112;51.076;3.706;2023-05-10T03:58:46;46.17;;;20.15;;
32734;SDS011;19112;51.076;3.706;2023-05-10T04:01:12;43.17;;;20.42;;
32734;SDS011;19112;51.076;3.706;2023-05-10T04:03:38;42.30;;;19.85;;
32734;SDS011;19112;51.076;3.706;2023-05-10T04:06:04;47.83;;;22.20;;
32734;SDS011;19112;51.076;3.706;2023-05-10T04:08:30;45.65;;;21.10;;
32734;SDS011;19112;51.076;3.706;2023-05-10T04:11:06;46.45;;;21.20;;
32734;SDS011;19112;51.076;3.706;2023-05-10T04:13:34;51.38;;;23.15;;
32734;SDS011;19112;51.076;3.706;2023-05-10T04:16:00;48.30;;;22.30;;
32734;SDS011;19112;51.076;3.706;2023-05-10T04:18:26;46.50;;;23.05;;
32734;SDS011;19112;51.076;3.706;2023-05-10T04:20:52;53.33;;;24.20;;
32734;SDS011;19112;51.076;3.706;2023-05-10T04:23:18;53.08;;;24.85;;
32734;SDS011;19112;51.076;3.706;2023-05-10T04:25:43;54.70;;;23.38;;
32734;SDS011;19112;51.076;3.706;2023-05-10T04:28:09;51.05;;;23.63;;
32734;SDS011;19112;51.076;3.706;2023-05-10T04:30:35;51.10;;;24.33;;
32734;SDS011;19112;51.076;3.706;2023-05-10T04:33:01;58.75;;;25.63;;
32734;SDS011;19112;51.076;3.706;2023-05-10T04:35:27;49.53;;;23.38;;
32734;SDS011;19112;51.076;3.706;2023-05-10T04:37:53;55.45;;;26.65;;
32734;SDS011;19112;51.076;3.706;2023-05-10T04:40:20;51.72;;;24.80;;
32734;SDS011;19112;51.076;3.706;2023-05-10T04:42:46;54.08;;;25.23;;
32734;SDS011;19112;51.076;3.706;2023-05-10T04:45:12;52.38;;;23.42;;
32734;SDS011;19112;51.076;3.706;2023-05-10T04:47:39;49.63;;;24.48;;
32734;SDS011;19112;51.076;3.706;2023-05-10T04:50:06;55.67;;;25.42;;
32734;SDS011;19112;51.076;3.706;2023-05-10T04:52:32;50.13;;;23.80;;
32734;SDS011;19112;51.076;3.706;2023-05-10T04:54:58;51.30;;;25.85;;
32734;SDS011;19112;51.076;3.706;2023-05-10T04:57:24;52.05;;;24.80;;
32734;SDS011;19112;51.076;3.706;2023-05-10T04:59:50;49.35;;;24.80;;
32734;SDS011;19112;51.076;3.706;2023-05-10T05:02:16;55.20;;;25.45;;
32734;SDS011;19112;51.076;3.706;2023-05-10T05:04:42;54.97;;;25.63;;
32734;SDS011;19112;51.076;3.706;2023-05-10T05:07:08;54.60;;;26.00;;
32734;SDS011;19112;51.076;3.706;2023-05-10T05:09:34;53.88;;;24.50;;
32734;SDS011;19112;51.076;3.706;2023-05-10T05:11:59;53.15;;;24.60;;
32734;SDS011;19112;51.076;3.706;2023-05-10T05:14:25;58.15;;;26.55;;
32734;SDS011;19112;51.076;3.706;2023-05-10T05:16:51;54.42;;;25.42;;
32734;SDS011;19112;51.076;3.706;2023-05-10T05:19:17;56.30;;;25.70;;
32734;SDS011;19112;51.076;3.706;2023-05-10T05:21:43;54.42;;;25.20;;
32734;SDS011;19112;51.076;3.706;2023-05-10T05:24:09;59.85;;;26.95;;
32734;SDS011;19112;51.076;3.706;2023-05-10T05:26:37;54.67;;;25.63;;
32734;SDS011;19112;51.076;3.706;2023-05-10T05:29:03;55.42;;;26.95;;
32734;SDS011;19112;51.076;3.706;2023-05-10T05:31:29;51.85;;;25.48;;
32734;SDS011;19112;51.076;3.706;2023-05-10T05:33:55;56.60;;;25.50;;
32734;SDS011;19112;51.076;3.706;2023-05-10T05:36:21;60.88;;;27.88;;
32734;SDS011;19112;51.076;3.706;2023-05-10T05:38:47;63.17;;;28.08;;
32734;SDS011;19112;51.076;3.706;2023-05-10T05:41:13;59.65;;;28.48;;
32734;SDS011;19112;51.076;3.706;2023-05-10T05:43:39;62.13;;;28.98;;
32734;SDS011;19112;51.076;3.706;2023-05-10T05:46:05;59.45;;;27.88;;
32734;SDS011;19112;51.076;3.706;2023-05-10T05:48:31;54.08;;;26.40;;
32734;SDS011;19112;51.076;3.706;2023-05-10T05:50:57;64.68;;;28.92;;
32734;SDS011;19112;51.076;3.706;2023-05-10T05:53:23;57.17;;;27.33;;
32734;SDS011;19112;51.076;3.706;2023-05-10T05:55:53;53.75;;;27.55;;
32734;SDS011;19112;51.076;3.706;2023-05-10T05:58:24;55.65;;;25.85;;
32734;SDS011;19112;51.076;3.706;2023-05-10T06:00:51;50.35;;;24.65;;
32734;SDS011;19112;51.076;3.706;2023-05-10T06:03:17;45.33;;;23.73;;
32734;SDS011;19112;51.076;3.706;2023-05-10T06:05:44;51.08;;;23.90;;
32734;SDS011;19112;51.076;3.706;2023-05-10T06:08:09;43.85;;;22.50;;
32734;SDS011;19112;51.076;3.706;2023-05-10T06:10:36;55.17;;;23.80;;
32734;SDS011;19112;51.076;3.706;2023-05-10T06:13:02;50.65;;;24.55;;
32734;SDS011;19112;51.076;3.706;2023-05-10T06:15:28;46.55;;;22.42;;
32734;SDS011;19112;51.076;3.706;2023-05-10T06:17:53;46.25;;;23.73;;
32734;SDS011;19112;51.076;3.706;2023-05-10T06:20:19;46.38;;;23.23;;
32734;SDS011;19112;51.076;3.706;2023-05-10T06:22:45;46.50;;;22.88;;
32734;SDS011;19112;51.076;3.706;2023-05-10T06:25:11;41.75;;;21.77;;
32734;SDS011;19112;51.076;3.706;2023-05-10T06:27:37;46.33;;;22.20;;
32734;SDS011;19112;51.076;3.706;2023-05-10T06:30:03;41.80;;;21.65;;
32734;SDS011;19112;51.076;3.706;2023-05-10T06:32:30;43.83;;;21.30;;
32734;SDS011;19112;51.076;3.706;2023-05-10T06:34:56;41.30;;;20.10;;
32734;SDS011;19112;51.076;3.706;2023-05-10T06:37:22;42.10;;;21.48;;
32734;SDS011;19112;51.076;3.706;2023-05-10T06:39:48;46.78;;;19.75;;
32734;SDS011;19112;51.076;3.706;2023-05-10T06:42:13;39.75;;;18.88;;
32734;SDS011;19112;51.076;3.706;2023-05-10T06:44:39;36.17;;;17.30;;
32734;SDS011;19112;51.076;3.706;2023-05-10T06:47:05;33.17;;;16.77;;
32734;SDS011;19112;51.076;3.706;2023-05-10T06:49:31;37.50;;;16.13;;
32734;SDS011;19112;51.076;3.706;2023-05-10T06:51:57;29.60;;;15.02;;
32734;SDS011;19112;51.076;3.706;2023-05-10T06:54:23;32.10;;;15.50;;
32734;SDS011;19112;51.076;3.706;2023-05-10T06:56:49;29.92;;;13.55;;
32734;SDS011;19112;51.076;3.706;2023-05-10T06:59:14;27.77;;;14.38;;
32734;SDS011;19112;51.076;3.706;2023-05-10T07:01:41;30.48;;;13.50;;
32734;SDS011;19112;51.076;3.706;2023-05-10T07:04:08;27.25;;;13.30;;
32734;SDS011;19112;51.076;3.706;2023-05-10T07:06:34;26.50;;;12.35;;
32734;SDS011;19112;51.076;3.706;2023-05-10T07:09:00;27.85;;;12.45;;
32734;SDS011;19112;51.076;3.706;2023-05-10T07:11:26;28.42;;;14.10;;
32734;SDS011;19112;51.076;3.706;2023-05-10T07:13:52;36.88;;;17.85;;
32734;SDS011;19112;51.076;3.706;2023-05-10T07:16:18;46.35;;;22.45;;
32734;SDS011;19112;51.076;3.706;2023-05-10T07:18:44;44.85;;;22.52;;
32734;SDS011;19112;51.076;3.706;2023-05-10T07:21:09;48.55;;;23.75;;
32734;SDS011;19112;51.076;3.706;2023-05-10T07:23:35;43.47;;;23.05;;
32734;SDS011;19112;51.076;3.706;2023-05-10T07:26:01;47.20;;;23.33;;
32734;SDS011;19112;51.076;3.706;2023-05-10T07:28:27;59.35;;;26.15;;
32734;SDS011;19112;51.076;3.706;2023-05-10T07:30:53;55.35;;;25.90;;
32734;SDS011;19112;51.076;3.706;2023-05-10T07:33:19;56.25;;;27.33;;
32734;SDS011;19112;51.076;3.706;2023-05-10T07:35:45;55.08;;;25.75;;
32734;SDS011;19112;51.076;3.706;2023-05-10T07:38:11;49.85;;;24.27;;
32734;SDS011;19112;51.076;3.706;2023-05-10T07:40:37;50.92;;;25.60;;
32734;SDS011;19112;51.076;3.706;2023-05-10T07:43:04;53.67;;;25.98;;
32734;SDS011;19112;51.076;3.706;2023-05-10T07:45:29;57.13;;;25.63;;
32734;SDS011;19112;51.076;3.706;2023-05-10T07:47:55;50.00;;;23.52;;
32734;SDS011;19112;51.076;3.706;2023-05-10T07:50:21;49.25;;;25.15;;
32734;SDS011;19112;51.076;3.706;2023-05-10T07:52:47;49.13;;;24.63;;
32734;SDS011;19112;51.076;3.706;2023-05-10T07:55:13;51.60;;;24.95;;
32734;SDS011;19112;51.076;3.706;2023-05-10T07:57:39;46.97;;;23.88;;
32734;SDS011;19112;51.076;3.706;2023-05-10T08:00:05;46.67;;;23.25;;
32734;SDS011;19112;51.076;3.706;2023-05-10T08:02:33;45.63;;;23.27;;
32734;SDS011;19112;51.076;3.706;2023-05-10T08:05:00;47.47;;;22.67;;
32734;SDS011;19112;51.076;3.706;2023-05-10T08:07:26;50.80;;;23.75;;
32734;SDS011;19112;51.076;3.706;2023-05-10T08:09:52;44.95;;;20.77;;
32734;SDS011;19112;51.076;3.706;2023-05-10T08:12:18;39.55;;;20.33;;
32734;SDS011;19112;51.076;3.706;2023-05-10T08:14:44;40.97;;;20.10;;
32734;SDS011;19112;51.076;3.706;2023-05-10T08:17:10;42.00;;;19.55;;
32734;SDS011;19112;51.076;3.706;2023-05-10T08:19:36;36.08;;;18.15;;
32734;SDS011;19112;51.076;3.706;2023-05-10T08:22:02;35.13;;;17.50;;
32734;SDS011;19112;51.076;3.706;2023-05-10T08:24:27;31.60;;;15.73;;
32734;SDS011;19112;51.076;3.706;2023-05-10T08:26:53;34.33;;;16.27;;
32734;SDS011;19112;51.076;3.706;2023-05-10T08:29:19;34.00;;;16.85;;
32734;SDS011;19112;51.076;3.706;2023-05-10T08:31:45;35.38;;;16.35;;
32734;SDS011;19112;51.076;3.706;2023-05-10T08:34:11;35.58;;;17.33;;
32734;SDS011;19112;51.076;3.706;2023-05-10T08:36:36;36.35;;;17.23;;
32734;SDS011;19112;51.076;3.706;2023-05-10T08:39:02;38.55;;;19.73;;
32734;SDS011;19112;51.076;3.706;2023-05-10T08:41:28;41.65;;;18.67;;
32734;SDS011;19112;51.076;3.706;2023-05-10T08:43:57;40.83;;;19.80;;
32734;SDS011;19112;51.076;3.706;2023-05-10T08:46:24;43.42;;;18.48;;
32734;SDS011;19112;51.076;3.706;2023-05-10T08:48:52;38.28;;;18.67;;
32734;SDS011;19112;51.076;3.706;2023-05-10T08:51:22;38.00;;;18.55;;
32734;SDS011;19112;51.076;3.706;2023-05-10T08:53:53;38.25;;;18.55;;
32734;SDS011;19112;51.076;3.706;2023-05-10T08:56:19;42.47;;;20.10;;
32734;SDS011;19112;51.076;3.706;2023-05-10T08:58:47;41.70;;;19.60;;
32734;SDS011;19112;51.076;3.706;2023-05-10T09:01:14;37.78;;;18.15;;
32734;SDS011;19112;51.076;3.706;2023-05-10T09:03:43;38.78;;;17.95;;
32734;SDS011;19112;51.076;3.706;2023-05-10T09:06:11;34.60;;;16.35;;
32734;SDS011;19112;51.076;3.706;2023-05-10T09:08:38;34.40;;;17.67;;
32734;SDS011;19112;51.076;3.706;2023-05-10T09:11:06;40.97;;;18.35;;
32734;SDS011;19112;51.076;3.706;2023-05-10T09:13:34;39.85;;;18.30;;
32734;SDS011;19112;51.076;3.706;2023-05-10T09:16:02;36.50;;;16.88;;
32734;SDS011;19112;51.076;3.706;2023-05-10T09:18:28;35.15;;;18.02;;
32734;SDS011;19112;51.076;3.706;2023-05-10T09:20:54;34.72;;;17.23;;
32734;SDS011;19112;51.076;3.706;2023-05-10T09:23:20;32.85;;;17.17;;
32734;SDS011;19112;51.076;3.706;2023-05-10T09:25:46;32.50;;;15.75;;
32734;SDS011;19112;51.076;3.706;2023-05-10T09:28:12;33.15;;;15.88;;
32734;SDS011;19112;51.076;3.706;2023-05-10T09:30:38;29.98;;;15.00;;
32734;SDS011;19112;51.076;3.706;2023-05-10T09:33:04;31.05;;;14.25;;
32734;SDS011;19112;51.076;3.706;2023-05-10T09:35:31;33.35;;;14.75;;
32734;SDS011;19112;51.076;3.706;2023-05-10T09:38:04;31.73;;;15.05;;
32734;SDS011;19112;51.076;3.706;2023-05-10T09:40:31;32.05;;;15.90;;
32734;SDS011;19112;51.076;3.706;2023-05-10T09:45:25;33.95;;;16.92;;
32734;SDS011;19112;51.076;3.706;2023-05-10T09:47:54;30.90;;;16.60;;
32734;SDS011;19112;51.076;3.706;2023-05-10T09:50:20;35.28;;;17.65;;
32734;SDS011;19112;51.076;3.706;2023-05-10T09:55:17;32.65;;;16.63;;
32734;SDS011;19112;51.076;3.706;2023-05-10T09:57:58;35.53;;;17.05;;
32734;SDS011;19112;51.076;3.706;2023-05-10T10:00:26;32.53;;;15.93;;
32734;SDS011;19112;51.076;3.706;2023-05-10T10:02:57;31.17;;;16.55;;
32734;SDS011;19112;51.076;3.706;2023-05-10T10:05:28;33.08;;;17.08;;
32734;SDS011;19112;51.076;3.706;2023-05-10T10:07:55;29.23;;;14.70;;
32734;SDS011;19112;51.076;3.706;2023-05-10T10:10:26;29.38;;;14.80;;
32734;SDS011;19112;51.076;3.706;2023-05-10T10:12:53;29.95;;;14.65;;
32734;SDS011;19112;51.076;3.706;2023-05-10T10:15:20;30.15;;;14.65;;
32734;SDS011;19112;51.076;3.706;2023-05-10T10:17:48;27.90;;;13.63;;
32734;SDS011;19112;51.076;3.706;2023-05-10T10:20:15;26.45;;;13.43;;
32734;SDS011;19112;51.076;3.706;2023-05-10T10:22:42;23.83;;;12.80;;
32734;SDS011;19112;51.076;3.706;2023-05-10T10:25:10;23.30;;;11.85;;
32734;SDS011;19112;51.076;3.706;2023-05-10T10:27:43;27.08;;;12.63;;
32734;SDS011;19112;51.076;3.706;2023-05-10T10:36:07;27.50;;;13.05;;
32734;SDS011;19112;51.076;3.706;2023-05-10T10:39:15;26.48;;;12.90;;
32734;SDS011;19112;51.076;3.706;2023-05-10T10:41:27;32.08;;;14.95;;
32734;SDS011;19112;51.076;3.706;2023-05-10T10:52:15;29.15;;;13.70;;
32734;SDS011;19112;51.076;3.706;2023-05-10T10:55:04;35.45;;;15.13;;
32734;SDS011;19112;51.076;3.706;2023-05-10T10:57:47;31.92;;;14.38;;
32734;SDS011;19112;51.076;3.706;2023-05-10T11:03:06;30.60;;;15.00;;
32734;SDS011;19112;51.076;3.706;2023-05-10T11:05:41;38.22;;;16.88;;
32734;SDS011;19112;51.076;3.706;2023-05-10T11:08:16;30.48;;;15.82;;
32734;SDS011;19112;51.076;3.706;2023-05-10T11:21:18;40.45;;;20.77;;
32734;SDS011;19112;51.076;3.706;2023-05-10T11:26:15;40.17;;;21.60;;
32734;SDS011;19112;51.076;3.706;2023-05-10T11:28:42;34.08;;;20.48;;
32734;SDS011;19112;51.076;3.706;2023-05-10T11:31:13;38.60;;;20.98;;
32734;SDS011;19112;51.076;3.706;2023-05-10T11:36:21;39.55;;;22.88;;
32734;SDS011;19112;51.076;3.706;2023-05-10T11:38:52;40.67;;;21.77;;
32734;SDS011;19112;51.076;3.706;2023-05-10T11:41:20;40.70;;;21.20;;
32734;SDS011;19112;51.076;3.706;2023-05-10T11:43:49;36.28;;;21.40;;
32734;SDS011;19112;51.076;3.706;2023-05-10T11:46:18;40.13;;;21.63;;
32734;SDS011;19112;51.076;3.706;2023-05-10T11:48:46;38.40;;;21.38;;
32734;SDS011;19112;51.076;3.706;2023-05-10T11:51:21;33.87;;;20.83;;
32734;SDS011;19112;51.076;3.706;2023-05-10T11:53:49;35.15;;;20.88;;
32734;SDS011;19112;51.076;3.706;2023-05-10T11:56:17;33.42;;;19.70;;
32734;SDS011;19112;51.076;3.706;2023-05-10T11:58:43;32.13;;;18.50;;
32734;SDS011;19112;51.076;3.706;2023-05-10T12:01:10;37.20;;;19.42;;
32734;SDS011;19112;51.076;3.706;2023-05-10T12:03:36;35.22;;;19.33;;
32734;SDS011;19112;51.076;3.706;2023-05-10T12:06:03;35.58;;;19.58;;
32734;SDS011;19112;51.076;3.706;2023-05-10T12:08:29;32.80;;;18.38;;
32734;SDS011;19112;51.076;3.706;2023-05-10T12:11:17;35.17;;;19.40;;
32734;SDS011;19112;51.076;3.706;2023-05-10T12:13:43;33.53;;;18.08;;
32734;SDS011;19112;51.076;3.706;2023-05-10T12:16:13;32.90;;;18.33;;
32734;SDS011;19112;51.076;3.706;2023-05-10T12:18:43;33.20;;;19.10;;
32734;SDS011;19112;51.076;3.706;2023-05-10T12:21:11;32.55;;;17.73;;
32734;SDS011;19112;51.076;3.706;2023-05-10T12:23:40;32.25;;;17.85;;
32734;SDS011;19112;51.076;3.706;2023-05-10T12:26:09;31.45;;;17.73;;
32734;SDS011;19112;51.076;3.706;2023-05-10T12:28:36;34.83;;;17.95;;
32734;SDS011;19112;51.076;3.706;2023-05-10T12:31:05;34.20;;;18.38;;
32734;SDS011;19112;51.076;3.706;2023-05-10T12:33:35;31.30;;;18.85;;
32734;SDS011;19112;51.076;3.706;2023-05-10T12:36:04;31.75;;;18.58;;
32734;SDS011;19112;51.076;3.706;2023-05-10T12:38:34;29.45;;;17.38;;
32734;SDS011;19112;51.076;3.706;2023-05-10T12:41:07;38.45;;;18.38;;
32734;SDS011;19112;51.076;3.706;2023-05-10T12:43:35;31.80;;;17.73;;
32734;SDS011;19112;51.076;3.706;2023-05-10T12:46:09;39.17;;;18.50;;
32734;SDS011;19112;51.076;3.706;2023-05-10T12:48:38;36.58;;;18.30;;
32734;SDS011;19112;51.076;3.706;2023-05-10T12:51:05;34.83;;;18.40;;
32734;SDS011;19112;51.076;3.706;2023-05-10T12:53:34;34.20;;;16.70;;
32734;SDS011;19112;51.076;3.706;2023-05-10T12:56:01;33.78;;;17.55;;
32734;SDS011;19112;51.076;3.706;2023-05-10T12:58:27;38.67;;;17.23;;
32734;SDS011;19112;51.076;3.706;2023-05-10T13:00:53;36.72;;;18.92;;
32734;SDS011;19112;51.076;3.706;2023-05-10T13:03:21;33.92;;;18.27;;
32734;SDS011;19112;51.076;3.706;2023-05-10T13:05:47;38.03;;;18.77;;
32734;SDS011;19112;51.076;3.706;2023-05-10T13:08:13;40.30;;;20.27;;
32734;SDS011;19112;51.076;3.706;2023-05-10T13:10:39;50.63;;;21.25;;
32734;SDS011;19112;51.076;3.706;2023-05-10T13:13:05;40.78;;;19.55;;
32734;SDS011;19112;51.076;3.706;2023-05-10T13:15:33;45.78;;;20.80;;
32734;SDS011;19112;51.076;3.706;2023-05-10T13:17:59;37.50;;;20.02;;
32734;SDS011;19112;51.076;3.706;2023-05-10T13:20:26;44.10;;;22.55;;
32734;SDS011;19112;51.076;3.706;2023-05-10T13:22:52;45.83;;;23.60;;
32734;SDS011;19112;51.076;3.706;2023-05-10T13:25:19;47.17;;;22.48;;
32734;SDS011;19112;51.076;3.706;2023-05-10T13:27:45;41.38;;;21.58;;
32734;SDS011;19112;51.076;3.706;2023-05-10T13:30:11;51.38;;;23.65;;
32734;SDS011;19112;51.076;3.706;2023-05-10T13:32:37;46.03;;;23.23;;
32734;SDS011;19112;51.076;3.706;2023-05-10T13:35:04;43.60;;;23.73;;
32734;SDS011;19112;51.076;3.706;2023-05-10T13:37:31;49.60;;;24.33;;
32734;SDS011;19112;51.076;3.706;2023-05-10T13:40:00;43.22;;;23.40;;
32734;SDS011;19112;51.076;3.706;2023-05-10T13:42:26;49.03;;;23.00;;
32734;SDS011;19112;51.076;3.706;2023-05-10T13:44:53;45.63;;;23.75;;
32734;SDS011;19112;51.076;3.706;2023-05-10T13:47:19;43.17;;;23.15;;
32734;SDS011;19112;51.076;3.706;2023-05-10T13:49:46;41.58;;;22.33;;
32734;SDS011;19112;51.076;3.706;2023-05-10T13:52:12;42.60;;;22.40;;
32734;SDS011;19112;51.076;3.706;2023-05-10T13:54:38;40.72;;;22.45;;
32734;SDS011;19112;51.076;3.706;2023-05-10T13:57:04;38.65;;;21.23;;
32734;SDS011;19112;51.076;3.706;2023-05-10T13:59:31;38.22;;;20.05;;
32734;SDS011;19112;51.076;3.706;2023-05-10T14:01:58;39.83;;;21.27;;
32734;SDS011;19112;51.076;3.706;2023-05-10T14:04:25;44.50;;;23.90;;
32734;SDS011;19112;51.076;3.706;2023-05-10T14:06:51;54.63;;;33.78;;
32734;SDS011;19112;51.076;3.706;2023-05-10T14:09:17;42.40;;;24.77;;
32734;SDS011;19112;51.076;3.706;2023-05-10T14:11:43;39.88;;;20.70;;
32734;SDS011;19112;51.076;3.706;2023-05-10T14:14:10;35.28;;;18.42;;
32734;SDS011;19112;51.076;3.706;2023-05-10T14:16:38;35.03;;;17.88;;
32734;SDS011;19112;51.076;3.706;2023-05-10T14:19:08;41.78;;;18.77;;
32734;SDS011;19112;51.076;3.706;2023-05-10T14:21:35;39.58;;;20.17;;
32734;SDS011;19112;51.076;3.706;2023-05-10T14:24:01;37.33;;;18.60;;
32734;SDS011;19112;51.076;3.706;2023-05-10T14:26:26;41.92;;;18.98;;
32734;SDS011;19112;51.076;3.706;2023-05-10T14:28:53;41.15;;;17.65;;
32734;SDS011;19112;51.076;3.706;2023-05-10T14:31:18;35.03;;;17.80;;
32734;SDS011;19112;51.076;3.706;2023-05-10T14:33:45;38.58;;;18.65;;
32734;SDS011;19112;51.076;3.706;2023-05-10T14:36:12;38.47;;;18.30;;
32734;SDS011;19112;51.076;3.706;2023-05-10T14:38:39;36.63;;;18.40;;
32734;SDS011;19112;51.076;3.706;2023-05-10T14:41:05;37.50;;;16.85;;
32734;SDS011;19112;51.076;3.706;2023-05-10T14:43:31;37.90;;;16.85;;
32734;SDS011;19112;51.076;3.706;2023-05-10T14:45:57;36.13;;;17.10;;
32734;SDS011;19112;51.076;3.706;2023-05-10T14:48:23;38.05;;;17.45;;
32734;SDS011;19112;51.076;3.706;2023-05-10T14:50:49;34.53;;;17.45;;
32734;SDS011;19112;51.076;3.706;2023-05-10T14:53:17;39.55;;;14.35;;
32734;SDS011;19112;51.076;3.706;2023-05-10T14:55:43;34.95;;;11.48;;
32734;SDS011;19112;51.076;3.706;2023-05-10T14:58:09;30.48;;;11.13;;
32734;SDS011;19112;51.076;3.706;2023-05-10T15:00:35;26.35;;;10.55;;
32734;SDS011;19112;51.076;3.706;2023-05-10T15:03:01;28.10;;;9.20;;
32734;SDS011;19112;51.076;3.706;2023-05-10T15:05:27;26.75;;;8.82;;
32734;SDS011;19112;51.076;3.706;2023-05-10T15:07:53;24.98;;;8.18;;
32734;SDS011;19112;51.076;3.706;2023-05-10T15:10:19;26.13;;;8.38;;
32734;SDS011;19112;51.076;3.706;2023-05-10T15:12:44;24.23;;;8.27;;
32734;SDS011;19112;51.076;3.706;2023-05-10T15:15:10;24.88;;;7.75;;
32734;SDS011;19112;51.076;3.706;2023-05-10T15:17:36;24.73;;;7.32;;